sensor_id;sensor_type;location;lat;lon;timestamp;P1;durP1;ratioP1;P2;durP2;ratioP2
8279;SDS011;8335;42.646;23.380;2023-10-19T00:02:23;14.73;;;10.80;;
8279;SDS011;8335;42.646;23.380;2023-10-19T00:04:50;13.37;;;10.00;;
8279;SDS011;8335;42.646;23.380;2023-10-19T00:07:17;16.20;;;10.50;;
8279;SDS011;8335;42.646;23.380;2023-10-19T00:09:43;15.33;;;10.57;;
8279;SDS011;8335;42.646;23.380;2023-10-19T00:12:12;13.10;;;9.73;;
8279;SDS011;8335;42.646;23.380;2023-10-19T00:14:41;14.60;;;10.10;;
8279;SDS011;8335;42.646;23.380;2023-10-19T00:17:07;13.80;;;9.97;;
8279;SDS011;8335;42.646;23.380;2023-10-19T00:19:36;14.13;;;9.93;;
8279;SDS011;8335;42.646;23.380;2023-10-19T00:22:05;14.80;;;9.70;;
8279;SDS011;8335;42.646;23.380;2023-10-19T00:24:37;12.40;;;9.10;;
8279;SDS011;8335;42.646;23.380;2023-10-19T00:27:06;13.87;;;9.90;;
8279;SDS011;8335;42.646;23.380;2023-10-19T00:29:42;14.80;;;10.07;;
8279;SDS011;8335;42.646;23.380;2023-10-19T00:32:14;13.87;;;10.33;;
8279;SDS011;8335;42.646;23.380;2023-10-19T00:34:43;12.67;;;9.93;;
8279;SDS011;8335;42.646;23.380;2023-10-19T00:37:16;12.63;;;9.43;;
8279;SDS011;8335;42.646;23.380;2023-10-19T00:39:53;12.70;;;9.73;;
8279;SDS011;8335;42.646;23.380;2023-10-19T00:42:22;14.60;;;9.67;;
8279;SDS011;8335;42.646;23.380;2023-10-19T00:44:51;12.73;;;9.07;;
8279;SDS011;8335;42.646;23.380;2023-10-19T00:47:26;13.73;;;9.87;;
8279;SDS011;8335;42.646;23.380;2023-10-19T00:49:59;12.80;;;9.77;;
8279;SDS011;8335;42.646;23.380;2023-10-19T00:52:28;15.60;;;10.53;;
8279;SDS011;8335;42.646;23.380;2023-10-19T00:54:58;12.43;;;9.47;;
8279;SDS011;8335;42.646;23.380;2023-10-19T00:57:26;14.67;;;9.83;;
8279;SDS011;8335;42.646;23.380;2023-10-19T00:59:59;12.97;;;9.87;;
8279;SDS011;8335;42.646;23.380;2023-10-19T01:02:36;14.77;;;9.07;;
8279;SDS011;8335;42.646;23.380;2023-10-19T01:05:09;13.23;;;9.47;;
8279;SDS011;8335;42.646;23.380;2023-10-19T01:07:38;12.67;;;9.53;;
8279;SDS011;8335;42.646;23.380;2023-10-19T01:10:08;13.17;;;9.53;;
8279;SDS011;8335;42.646;23.380;2023-10-19T01:12:37;14.03;;;9.53;;
8279;SDS011;8335;42.646;23.380;2023-10-19T01:15:08;12.77;;;9.60;;
8279;SDS011;8335;42.646;23.380;2023-10-19T01:17:38;10.60;;;8.20;;
8279;SDS011;8335;42.646;23.380;2023-10-19T01:20:09;13.53;;;9.50;;
8279;SDS011;8335;42.646;23.380;2023-10-19T01:22:55;11.13;;;8.57;;
8279;SDS011;8335;42.646;23.380;2023-10-19T01:25:42;14.23;;;8.77;;
8279;SDS011;8335;42.646;23.380;2023-10-19T01:28:14;11.23;;;8.63;;
8279;SDS011;8335;42.646;23.380;2023-10-19T01:30:42;14.37;;;9.10;;
8279;SDS011;8335;42.646;23.380;2023-10-19T01:33:10;11.60;;;8.63;;
8279;SDS011;8335;42.646;23.380;2023-10-19T01:35:40;12.73;;;8.70;;
8279;SDS011;8335;42.646;23.380;2023-10-19T01:38:26;11.63;;;8.70;;
8279;SDS011;8335;42.646;23.380;2023-10-19T01:40:56;10.67;;;8.03;;
8279;SDS011;8335;42.646;23.380;2023-10-19T01:43:24;11.47;;;8.47;;
8279;SDS011;8335;42.646;23.380;2023-10-19T01:45:51;12.03;;;8.47;;
8279;SDS011;8335;42.646;23.380;2023-10-19T01:48:19;12.23;;;9.00;;
8279;SDS011;8335;42.646;23.380;2023-10-19T01:50:48;11.20;;;8.57;;
8279;SDS011;8335;42.646;23.380;2023-10-19T01:53:15;12.07;;;8.60;;
8279;SDS011;8335;42.646;23.380;2023-10-19T01:55:43;13.83;;;8.93;;
8279;SDS011;8335;42.646;23.380;2023-10-19T01:58:12;11.63;;;8.10;;
8279;SDS011;8335;42.646;23.380;2023-10-19T02:00:39;10.63;;;8.23;;
8279;SDS011;8335;42.646;23.380;2023-10-19T02:03:08;12.10;;;8.33;;
8279;SDS011;8335;42.646;23.380;2023-10-19T02:05:34;13.67;;;9.57;;
8279;SDS011;8335;42.646;23.380;2023-10-19T02:08:06;11.70;;;8.43;;
8279;SDS011;8335;42.646;23.380;2023-10-19T02:10:32;11.53;;;8.73;;
8279;SDS011;8335;42.646;23.380;2023-10-19T02:13:01;11.67;;;8.40;;
8279;SDS011;8335;42.646;23.380;2023-10-19T02:15:31;11.70;;;8.53;;
8279;SDS011;8335;42.646;23.380;2023-10-19T02:17:59;11.83;;;7.77;;
8279;SDS011;8335;42.646;23.380;2023-10-19T02:20:27;11.63;;;8.67;;
8279;SDS011;8335;42.646;23.380;2023-10-19T02:22:54;12.33;;;8.80;;
8279;SDS011;8335;42.646;23.380;2023-10-19T02:25:20;13.53;;;8.50;;
8279;SDS011;8335;42.646;23.380;2023-10-19T02:27:47;11.53;;;8.97;;
8279;SDS011;8335;42.646;23.380;2023-10-19T02:30:15;11.63;;;8.80;;
8279;SDS011;8335;42.646;23.380;2023-10-19T02:32:42;11.87;;;9.10;;
8279;SDS011;8335;42.646;23.380;2023-10-19T02:35:09;12.23;;;8.50;;
8279;SDS011;8335;42.646;23.380;2023-10-19T02:37:35;13.47;;;9.27;;
8279;SDS011;8335;42.646;23.380;2023-10-19T02:40:04;13.40;;;9.53;;
8279;SDS011;8335;42.646;23.380;2023-10-19T02:42:37;14.50;;;9.80;;
8279;SDS011;8335;42.646;23.380;2023-10-19T02:45:03;12.57;;;8.90;;
8279;SDS011;8335;42.646;23.380;2023-10-19T02:47:32;13.07;;;9.50;;
8279;SDS011;8335;42.646;23.380;2023-10-19T02:49:58;11.67;;;9.07;;
8279;SDS011;8335;42.646;23.380;2023-10-19T02:52:25;12.33;;;9.20;;
8279;SDS011;8335;42.646;23.380;2023-10-19T02:54:52;16.23;;;9.53;;
8279;SDS011;8335;42.646;23.380;2023-10-19T02:57:22;15.50;;;10.10;;
8279;SDS011;8335;42.646;23.380;2023-10-19T02:59:48;15.67;;;10.63;;
8279;SDS011;8335;42.646;23.380;2023-10-19T03:02:15;22.83;;;14.37;;
8279;SDS011;8335;42.646;23.380;2023-10-19T03:04:44;17.40;;;11.70;;
8279;SDS011;8335;42.646;23.380;2023-10-19T03:07:11;17.77;;;10.80;;
8279;SDS011;8335;42.646;23.380;2023-10-19T03:09:37;16.77;;;10.50;;
8279;SDS011;8335;42.646;23.380;2023-10-19T03:12:05;21.93;;;12.77;;
8279;SDS011;8335;42.646;23.380;2023-10-19T03:14:35;16.83;;;9.93;;
8279;SDS011;8335;42.646;23.380;2023-10-19T03:17:03;11.43;;;9.07;;
8279;SDS011;8335;42.646;23.380;2023-10-19T03:19:30;15.47;;;8.53;;
8279;SDS011;8335;42.646;23.380;2023-10-19T03:21:58;11.83;;;9.00;;
8279;SDS011;8335;42.646;23.380;2023-10-19T03:24:25;11.37;;;8.43;;
8279;SDS011;8335;42.646;23.380;2023-10-19T03:27:01;11.53;;;8.10;;
8279;SDS011;8335;42.646;23.380;2023-10-19T03:29:33;12.23;;;8.20;;
8279;SDS011;8335;42.646;23.380;2023-10-19T03:32:04;10.03;;;7.40;;
8279;SDS011;8335;42.646;23.380;2023-10-19T03:34:31;10.03;;;7.93;;
8279;SDS011;8335;42.646;23.380;2023-10-19T03:36:59;11.33;;;8.57;;
8279;SDS011;8335;42.646;23.380;2023-10-19T03:39:30;12.13;;;8.07;;
8279;SDS011;8335;42.646;23.380;2023-10-19T03:41:59;11.10;;;8.10;;
8279;SDS011;8335;42.646;23.380;2023-10-19T03:44:26;11.37;;;7.73;;
8279;SDS011;8335;42.646;23.380;2023-10-19T03:47:04;10.83;;;7.50;;
8279;SDS011;8335;42.646;23.380;2023-10-19T03:49:36;11.27;;;7.70;;
8279;SDS011;8335;42.646;23.380;2023-10-19T03:52:06;10.10;;;7.60;;
8279;SDS011;8335;42.646;23.380;2023-10-19T03:54:46;11.57;;;8.33;;
8279;SDS011;8335;42.646;23.380;2023-10-19T03:57:14;10.87;;;7.77;;
8279;SDS011;8335;42.646;23.380;2023-10-19T03:59:44;10.43;;;7.83;;
8279;SDS011;8335;42.646;23.380;2023-10-19T04:02:12;11.20;;;8.53;;
8279;SDS011;8335;42.646;23.380;2023-10-19T04:04:41;11.07;;;8.10;;
8279;SDS011;8335;42.646;23.380;2023-10-19T04:07:10;11.97;;;7.30;;
8279;SDS011;8335;42.646;23.380;2023-10-19T04:09:43;11.03;;;7.67;;
8279;SDS011;8335;42.646;23.380;2023-10-19T04:12:26;12.30;;;7.67;;
8279;SDS011;8335;42.646;23.380;2023-10-19T04:14:55;11.90;;;7.90;;
8279;SDS011;8335;42.646;23.380;2023-10-19T04:17:22;11.10;;;7.77;;
8279;SDS011;8335;42.646;23.380;2023-10-19T04:19:50;14.17;;;7.40;;
8279;SDS011;8335;42.646;23.380;2023-10-19T04:22:19;11.90;;;7.07;;
8279;SDS011;8335;42.646;23.380;2023-10-19T04:24:49;10.73;;;7.23;;
8279;SDS011;8335;42.646;23.380;2023-10-19T04:27:15;8.03;;;6.00;;
8279;SDS011;8335;42.646;23.380;2023-10-19T04:29:42;9.33;;;7.03;;
8279;SDS011;8335;42.646;23.380;2023-10-19T04:32:10;10.13;;;7.03;;
8279;SDS011;8335;42.646;23.380;2023-10-19T04:34:39;9.60;;;7.17;;
8279;SDS011;8335;42.646;23.380;2023-10-19T04:37:07;8.37;;;6.70;;
8279;SDS011;8335;42.646;23.380;2023-10-19T04:39:39;10.27;;;6.53;;
8279;SDS011;8335;42.646;23.380;2023-10-19T04:42:05;8.67;;;6.30;;
8279;SDS011;8335;42.646;23.380;2023-10-19T04:44:32;10.77;;;6.53;;
8279;SDS011;8335;42.646;23.380;2023-10-19T04:46:59;8.03;;;6.50;;
8279;SDS011;8335;42.646;23.380;2023-10-19T04:49:26;9.07;;;6.20;;
8279;SDS011;8335;42.646;23.380;2023-10-19T04:51:53;8.33;;;6.03;;
8279;SDS011;8335;42.646;23.380;2023-10-19T04:54:20;8.70;;;6.33;;
8279;SDS011;8335;42.646;23.380;2023-10-19T04:56:48;7.83;;;5.73;;
8279;SDS011;8335;42.646;23.380;2023-10-19T04:59:15;8.67;;;6.43;;
8279;SDS011;8335;42.646;23.380;2023-10-19T05:01:42;8.43;;;5.60;;
8279;SDS011;8335;42.646;23.380;2023-10-19T05:04:09;8.07;;;5.90;;
8279;SDS011;8335;42.646;23.380;2023-10-19T05:06:37;7.30;;;5.47;;
8279;SDS011;8335;42.646;23.380;2023-10-19T05:09:04;8.50;;;6.03;;
8279;SDS011;8335;42.646;23.380;2023-10-19T05:11:31;7.87;;;5.13;;
8279;SDS011;8335;42.646;23.380;2023-10-19T05:13:59;8.37;;;5.83;;
8279;SDS011;8335;42.646;23.380;2023-10-19T05:16:26;8.03;;;6.20;;
8279;SDS011;8335;42.646;23.380;2023-10-19T05:18:56;11.57;;;5.63;;
8279;SDS011;8335;42.646;23.380;2023-10-19T05:21:22;10.03;;;6.13;;
8279;SDS011;8335;42.646;23.380;2023-10-19T05:23:49;10.00;;;6.17;;
8279;SDS011;8335;42.646;23.380;2023-10-19T05:26:16;9.07;;;6.07;;
8279;SDS011;8335;42.646;23.380;2023-10-19T05:28:43;8.30;;;5.87;;
8279;SDS011;8335;42.646;23.380;2023-10-19T05:31:11;8.23;;;5.70;;
8279;SDS011;8335;42.646;23.380;2023-10-19T05:33:38;7.97;;;5.63;;
8279;SDS011;8335;42.646;23.380;2023-10-19T05:36:05;8.70;;;5.83;;
8279;SDS011;8335;42.646;23.380;2023-10-19T05:38:32;6.50;;;5.67;;
8279;SDS011;8335;42.646;23.380;2023-10-19T05:40:59;9.33;;;5.63;;
8279;SDS011;8335;42.646;23.380;2023-10-19T05:43:26;7.70;;;5.30;;
8279;SDS011;8335;42.646;23.380;2023-10-19T05:45:54;6.40;;;5.33;;
8279;SDS011;8335;42.646;23.380;2023-10-19T05:48:23;6.70;;;4.70;;
8279;SDS011;8335;42.646;23.380;2023-10-19T05:50:50;6.97;;;5.07;;
8279;SDS011;8335;42.646;23.380;2023-10-19T05:53:17;6.30;;;4.43;;
8279;SDS011;8335;42.646;23.380;2023-10-19T05:55:44;6.67;;;4.40;;
8279;SDS011;8335;42.646;23.380;2023-10-19T05:58:11;5.30;;;4.70;;
8279;SDS011;8335;42.646;23.380;2023-10-19T06:00:38;5.40;;;4.47;;
8279;SDS011;8335;42.646;23.380;2023-10-19T06:03:05;5.10;;;4.40;;
8279;SDS011;8335;42.646;23.380;2023-10-19T06:05:33;5.00;;;4.17;;
8279;SDS011;8335;42.646;23.380;2023-10-19T06:08:00;7.13;;;4.30;;
8279;SDS011;8335;42.646;23.380;2023-10-19T06:10:27;8.80;;;4.93;;
8279;SDS011;8335;42.646;23.380;2023-10-19T06:12:55;8.17;;;5.13;;
8279;SDS011;8335;42.646;23.380;2023-10-19T06:15:22;5.20;;;4.40;;
8279;SDS011;8335;42.646;23.380;2023-10-19T06:17:50;6.97;;;4.90;;
8279;SDS011;8335;42.646;23.380;2023-10-19T06:20:17;7.27;;;4.93;;
8279;SDS011;8335;42.646;23.380;2023-10-19T06:22:53;6.03;;;4.57;;
8279;SDS011;8335;42.646;23.380;2023-10-19T06:25:21;6.30;;;4.93;;
8279;SDS011;8335;42.646;23.380;2023-10-19T06:27:49;5.53;;;4.93;;
8279;SDS011;8335;42.646;23.380;2023-10-19T06:30:17;5.80;;;4.73;;
8279;SDS011;8335;42.646;23.380;2023-10-19T06:32:48;5.07;;;4.40;;
8279;SDS011;8335;42.646;23.380;2023-10-19T06:35:16;5.73;;;4.83;;
8279;SDS011;8335;42.646;23.380;2023-10-19T06:37:43;7.70;;;4.77;;
8279;SDS011;8335;42.646;23.380;2023-10-19T06:40:12;8.33;;;4.93;;
8279;SDS011;8335;42.646;23.380;2023-10-19T06:42:40;10.97;;;5.33;;
8279;SDS011;8335;42.646;23.380;2023-10-19T06:45:07;6.17;;;5.17;;
8279;SDS011;8335;42.646;23.380;2023-10-19T06:47:37;6.23;;;5.20;;
8279;SDS011;8335;42.646;23.380;2023-10-19T06:50:05;9.70;;;4.90;;
8279;SDS011;8335;42.646;23.380;2023-10-19T06:52:35;7.50;;;4.87;;
8279;SDS011;8335;42.646;23.380;2023-10-19T06:55:02;10.90;;;5.53;;
8279;SDS011;8335;42.646;23.380;2023-10-19T06:57:31;6.47;;;4.63;;
8279;SDS011;8335;42.646;23.380;2023-10-19T06:59:59;7.47;;;5.50;;
8279;SDS011;8335;42.646;23.380;2023-10-19T07:02:35;7.37;;;5.63;;
8279;SDS011;8335;42.646;23.380;2023-10-19T07:05:05;6.23;;;5.17;;
8279;SDS011;8335;42.646;23.380;2023-10-19T07:07:35;10.43;;;5.27;;
8279;SDS011;8335;42.646;23.380;2023-10-19T07:10:02;8.73;;;5.30;;
8279;SDS011;8335;42.646;23.380;2023-10-19T07:12:29;5.83;;;4.70;;
8279;SDS011;8335;42.646;23.380;2023-10-19T07:14:57;5.60;;;4.90;;
8279;SDS011;8335;42.646;23.380;2023-10-19T07:17:26;5.40;;;4.73;;
8279;SDS011;8335;42.646;23.380;2023-10-19T07:19:52;8.00;;;4.77;;
8279;SDS011;8335;42.646;23.380;2023-10-19T07:22:20;4.97;;;4.13;;
8279;SDS011;8335;42.646;23.380;2023-10-19T07:24:48;5.00;;;4.33;;
8279;SDS011;8335;42.646;23.380;2023-10-19T07:27:15;4.87;;;4.37;;
8279;SDS011;8335;42.646;23.380;2023-10-19T07:29:43;5.13;;;4.50;;
8279;SDS011;8335;42.646;23.380;2023-10-19T07:32:11;5.83;;;4.40;;
8279;SDS011;8335;42.646;23.380;2023-10-19T07:34:39;6.63;;;4.53;;
8279;SDS011;8335;42.646;23.380;2023-10-19T07:37:06;6.73;;;5.23;;
8279;SDS011;8335;42.646;23.380;2023-10-19T07:39:40;7.70;;;5.23;;
8279;SDS011;8335;42.646;23.380;2023-10-19T07:42:07;9.17;;;5.67;;
8279;SDS011;8335;42.646;23.380;2023-10-19T07:44:34;7.93;;;4.93;;
8279;SDS011;8335;42.646;23.380;2023-10-19T07:47:01;5.43;;;4.73;;
8279;SDS011;8335;42.646;23.380;2023-10-19T07:49:29;7.83;;;4.87;;
8279;SDS011;8335;42.646;23.380;2023-10-19T07:51:56;5.60;;;5.03;;
8279;SDS011;8335;42.646;23.380;2023-10-19T07:54:24;9.00;;;5.00;;
8279;SDS011;8335;42.646;23.380;2023-10-19T07:56:52;10.23;;;6.57;;
8279;SDS011;8335;42.646;23.380;2023-10-19T07:59:20;19.10;;;10.40;;
8279;SDS011;8335;42.646;23.380;2023-10-19T08:01:47;8.25;;;6.03;;
8279;SDS011;8335;42.646;23.380;2023-10-19T08:04:14;6.55;;;5.25;;
8279;SDS011;8335;42.646;23.380;2023-10-19T08:06:42;9.05;;;6.63;;
8279;SDS011;8335;42.646;23.380;2023-10-19T08:09:09;11.80;;;6.75;;
8279;SDS011;8335;42.646;23.380;2023-10-19T08:11:36;11.90;;;7.25;;
8279;SDS011;8335;42.646;23.380;2023-10-19T08:14:03;8.68;;;7.15;;
8279;SDS011;8335;42.646;23.380;2023-10-19T08:16:31;10.88;;;7.85;;
8279;SDS011;8335;42.646;23.380;2023-10-19T08:18:58;11.00;;;7.60;;
8279;SDS011;8335;42.646;23.380;2023-10-19T08:21:24;8.45;;;7.55;;
8279;SDS011;8335;42.646;23.380;2023-10-19T08:23:55;11.23;;;7.93;;
8279;SDS011;8335;42.646;23.380;2023-10-19T08:26:22;13.82;;;8.38;;
8279;SDS011;8335;42.646;23.380;2023-10-19T08:28:48;10.27;;;8.32;;
8279;SDS011;8335;42.646;23.380;2023-10-19T08:31:15;11.73;;;8.27;;
8279;SDS011;8335;42.646;23.380;2023-10-19T08:33:42;9.63;;;8.00;;
8279;SDS011;8335;42.646;23.380;2023-10-19T08:36:15;8.38;;;7.40;;
8279;SDS011;8335;42.646;23.380;2023-10-19T08:38:44;8.48;;;6.72;;
8279;SDS011;8335;42.646;23.380;2023-10-19T08:41:13;8.15;;;7.10;;
8279;SDS011;8335;42.646;23.380;2023-10-19T08:43:40;9.18;;;7.47;;
8279;SDS011;8335;42.646;23.380;2023-10-19T08:46:07;9.27;;;6.97;;
8279;SDS011;8335;42.646;23.380;2023-10-19T08:48:34;11.40;;;7.28;;
8279;SDS011;8335;42.646;23.380;2023-10-19T08:51:03;8.95;;;7.03;;
8279;SDS011;8335;42.646;23.380;2023-10-19T08:53:36;11.40;;;7.50;;
8279;SDS011;8335;42.646;23.380;2023-10-19T08:56:06;9.00;;;6.95;;
8279;SDS011;8335;42.646;23.380;2023-10-19T08:58:35;7.50;;;6.50;;
8279;SDS011;8335;42.646;23.380;2023-10-19T09:01:01;7.80;;;6.68;;
8279;SDS011;8335;42.646;23.380;2023-10-19T09:03:35;8.20;;;6.97;;
8279;SDS011;8335;42.646;23.380;2023-10-19T09:06:03;9.32;;;6.75;;
8279;SDS011;8335;42.646;23.380;2023-10-19T09:08:30;11.43;;;6.65;;
8279;SDS011;8335;42.646;23.380;2023-10-19T09:11:05;7.38;;;6.03;;
8279;SDS011;8335;42.646;23.380;2023-10-19T09:13:43;8.00;;;6.00;;
8279;SDS011;8335;42.646;23.380;2023-10-19T09:16:12;6.72;;;6.03;;
8279;SDS011;8335;42.646;23.380;2023-10-19T09:18:40;6.30;;;5.45;;
8279;SDS011;8335;42.646;23.380;2023-10-19T09:21:07;7.40;;;5.30;;
8279;SDS011;8335;42.646;23.380;2023-10-19T09:23:37;7.15;;;5.70;;
8279;SDS011;8335;42.646;23.380;2023-10-19T09:26:04;7.38;;;5.47;;
8279;SDS011;8335;42.646;23.380;2023-10-19T09:28:34;7.63;;;5.68;;
8279;SDS011;8335;42.646;23.380;2023-10-19T09:31:03;7.03;;;5.95;;
8279;SDS011;8335;42.646;23.380;2023-10-19T09:33:31;6.63;;;5.85;;
8279;SDS011;8335;42.646;23.380;2023-10-19T09:36:00;8.05;;;6.30;;
8279;SDS011;8335;42.646;23.380;2023-10-19T09:38:29;7.82;;;6.57;;
8279;SDS011;8335;42.646;23.380;2023-10-19T09:40:58;8.88;;;5.93;;
8279;SDS011;8335;42.646;23.380;2023-10-19T09:43:30;6.72;;;6.03;;
8279;SDS011;8335;42.646;23.380;2023-10-19T09:46:01;7.72;;;5.53;;
8279;SDS011;8335;42.646;23.380;2023-10-19T09:48:35;9.93;;;5.90;;
8279;SDS011;8335;42.646;23.380;2023-10-19T09:51:07;9.43;;;6.85;;
8279;SDS011;8335;42.646;23.380;2023-10-19T09:53:35;9.63;;;6.53;;
8279;SDS011;8335;42.646;23.380;2023-10-19T09:56:05;8.32;;;6.60;;
8279;SDS011;8335;42.646;23.380;2023-10-19T09:58:35;10.15;;;6.70;;
8279;SDS011;8335;42.646;23.380;2023-10-19T10:01:07;7.93;;;6.63;;
8279;SDS011;8335;42.646;23.380;2023-10-19T10:03:44;7.25;;;6.50;;
8279;SDS011;8335;42.646;23.380;2023-10-19T10:06:12;9.43;;;7.28;;
8279;SDS011;8335;42.646;23.380;2023-10-19T10:08:47;8.10;;;6.72;;
8279;SDS011;8335;42.646;23.380;2023-10-19T10:11:19;8.93;;;6.50;;
8279;SDS011;8335;42.646;23.380;2023-10-19T10:13:47;5.95;;;5.30;;
8279;SDS011;8335;42.646;23.380;2023-10-19T10:16:19;7.65;;;6.82;;
8279;SDS011;8335;42.646;23.380;2023-10-19T10:18:49;11.93;;;9.88;;
8279;SDS011;8335;42.646;23.380;2023-10-19T10:21:17;14.02;;;10.48;;
8279;SDS011;8335;42.646;23.380;2023-10-19T10:23:47;9.18;;;6.57;;
8279;SDS011;8335;42.646;23.380;2023-10-19T10:26:15;10.27;;;7.15;;
8279;SDS011;8335;42.646;23.380;2023-10-19T10:28:46;8.80;;;6.93;;
8279;SDS011;8335;42.646;23.380;2023-10-19T10:31:16;8.90;;;6.82;;
8279;SDS011;8335;42.646;23.380;2023-10-19T10:33:48;8.27;;;6.45;;
8279;SDS011;8335;42.646;23.380;2023-10-19T10:36:16;10.13;;;6.72;;
8279;SDS011;8335;42.646;23.380;2023-10-19T10:38:44;8.75;;;6.95;;
8279;SDS011;8335;42.646;23.380;2023-10-19T10:41:11;6.90;;;5.80;;
8279;SDS011;8335;42.646;23.380;2023-10-19T10:43:51;7.45;;;6.07;;
8279;SDS011;8335;42.646;23.380;2023-10-19T10:46:20;7.90;;;6.03;;
8279;SDS011;8335;42.646;23.380;2023-10-19T10:48:48;9.30;;;5.88;;
8279;SDS011;8335;42.646;23.380;2023-10-19T10:51:20;8.30;;;7.13;;
8279;SDS011;8335;42.646;23.380;2023-10-19T10:53:52;6.93;;;6.22;;
8279;SDS011;8335;42.646;23.380;2023-10-19T10:56:20;9.40;;;6.75;;
8279;SDS011;8335;42.646;23.380;2023-10-19T10:58:50;8.30;;;6.82;;
8279;SDS011;8335;42.646;23.380;2023-10-19T11:01:29;8.65;;;7.05;;
8279;SDS011;8335;42.646;23.380;2023-10-19T11:04:07;9.10;;;6.57;;
8279;SDS011;8335;42.646;23.380;2023-10-19T11:06:48;8.43;;;6.90;;
8279;SDS011;8335;42.646;23.380;2023-10-19T11:09:15;7.90;;;7.10;;
8279;SDS011;8335;42.646;23.380;2023-10-19T11:11:44;9.40;;;6.90;;
8279;SDS011;8335;42.646;23.380;2023-10-19T11:14:11;11.25;;;7.03;;
8279;SDS011;8335;42.646;23.380;2023-10-19T11:16:39;9.48;;;7.40;;
8279;SDS011;8335;42.646;23.380;2023-10-19T11:19:08;9.48;;;7.18;;
8279;SDS011;8335;42.646;23.380;2023-10-19T11:21:35;9.07;;;6.88;;
8279;SDS011;8335;42.646;23.380;2023-10-19T11:24:02;7.45;;;6.45;;
8279;SDS011;8335;42.646;23.380;2023-10-19T11:26:30;7.78;;;6.97;;
8279;SDS011;8335;42.646;23.380;2023-10-19T11:28:57;7.55;;;6.18;;
8279;SDS011;8335;42.646;23.380;2023-10-19T11:31:24;7.47;;;6.72;;
8279;SDS011;8335;42.646;23.380;2023-10-19T11:33:53;8.82;;;7.07;;
8279;SDS011;8335;42.646;23.380;2023-10-19T11:36:21;7.55;;;6.70;;
8279;SDS011;8335;42.646;23.380;2023-10-19T11:38:50;11.38;;;7.22;;
8279;SDS011;8335;42.646;23.380;2023-10-19T11:41:17;10.90;;;7.35;;
8279;SDS011;8335;42.646;23.380;2023-10-19T11:43:45;8.77;;;7.60;;
8279;SDS011;8335;42.646;23.380;2023-10-19T11:46:13;10.38;;;7.78;;
8279;SDS011;8335;42.646;23.380;2023-10-19T11:48:40;11.02;;;7.35;;
8279;SDS011;8335;42.646;23.380;2023-10-19T11:51:09;10.30;;;7.22;;
8279;SDS011;8335;42.646;23.380;2023-10-19T11:53:38;10.75;;;6.78;;
8279;SDS011;8335;42.646;23.380;2023-10-19T11:56:06;8.68;;;6.88;;
8279;SDS011;8335;42.646;23.380;2023-10-19T11:58:34;12.57;;;7.78;;
8279;SDS011;8335;42.646;23.380;2023-10-19T12:01:03;14.70;;;7.85;;
8279;SDS011;8335;42.646;23.380;2023-10-19T12:03:33;8.68;;;7.47;;
8279;SDS011;8335;42.646;23.380;2023-10-19T12:06:02;10.85;;;7.20;;
8279;SDS011;8335;42.646;23.380;2023-10-19T12:08:32;9.98;;;7.25;;
8279;SDS011;8335;42.646;23.380;2023-10-19T12:10:59;12.35;;;7.63;;
8279;SDS011;8335;42.646;23.380;2023-10-19T12:13:28;9.32;;;7.65;;
8279;SDS011;8335;42.646;23.380;2023-10-19T12:15:56;10.70;;;7.30;;
8279;SDS011;8335;42.646;23.380;2023-10-19T12:18:23;11.20;;;7.32;;
8279;SDS011;8335;42.646;23.380;2023-10-19T12:20:51;8.90;;;6.68;;
8279;SDS011;8335;42.646;23.380;2023-10-19T12:23:21;11.55;;;8.18;;
8279;SDS011;8335;42.646;23.380;2023-10-19T12:25:50;10.40;;;7.57;;
8279;SDS011;8335;42.646;23.380;2023-10-19T12:28:17;10.50;;;7.30;;
8279;SDS011;8335;42.646;23.380;2023-10-19T12:30:44;11.68;;;8.35;;
8279;SDS011;8335;42.646;23.380;2023-10-19T12:33:11;9.93;;;6.88;;
8279;SDS011;8335;42.646;23.380;2023-10-19T12:35:38;9.50;;;7.07;;
8279;SDS011;8335;42.646;23.380;2023-10-19T12:38:14;10.68;;;6.47;;
8279;SDS011;8335;42.646;23.380;2023-10-19T12:40:44;10.48;;;6.57;;
8279;SDS011;8335;42.646;23.380;2023-10-19T12:43:14;8.00;;;6.25;;
8279;SDS011;8335;42.646;23.380;2023-10-19T12:45:44;7.15;;;6.45;;
8279;SDS011;8335;42.646;23.380;2023-10-19T12:48:15;12.15;;;6.35;;
8279;SDS011;8335;42.646;23.380;2023-10-19T12:50:43;8.55;;;5.88;;
8279;SDS011;8335;42.646;23.380;2023-10-19T12:53:10;8.23;;;5.72;;
8279;SDS011;8335;42.646;23.380;2023-10-19T12:55:37;10.35;;;6.15;;
8279;SDS011;8335;42.646;23.380;2023-10-19T12:58:04;8.65;;;6.30;;
8279;SDS011;8335;42.646;23.380;2023-10-19T13:00:36;8.93;;;5.60;;
8279;SDS011;8335;42.646;23.380;2023-10-19T13:03:07;9.45;;;5.63;;
8279;SDS011;8335;42.646;23.380;2023-10-19T13:05:38;6.78;;;5.25;;
8279;SDS011;8335;42.646;23.380;2023-10-19T13:08:06;7.47;;;5.40;;
8279;SDS011;8335;42.646;23.380;2023-10-19T13:10:34;6.20;;;5.30;;
8279;SDS011;8335;42.646;23.380;2023-10-19T13:13:03;10.60;;;5.80;;
8279;SDS011;8335;42.646;23.380;2023-10-19T13:15:31;8.02;;;5.55;;
8279;SDS011;8335;42.646;23.380;2023-10-19T13:18:01;9.82;;;5.43;;
8279;SDS011;8335;42.646;23.380;2023-10-19T13:20:28;7.30;;;5.72;;
8279;SDS011;8335;42.646;23.380;2023-10-19T13:22:59;9.77;;;5.25;;
8279;SDS011;8335;42.646;23.380;2023-10-19T13:25:28;5.47;;;4.72;;
8279;SDS011;8335;42.646;23.380;2023-10-19T13:28:07;8.10;;;5.00;;
8279;SDS011;8335;42.646;23.380;2023-10-19T13:30:38;5.93;;;4.65;;
8279;SDS011;8335;42.646;23.380;2023-10-19T13:33:06;8.02;;;5.25;;
8279;SDS011;8335;42.646;23.380;2023-10-19T13:35:35;6.28;;;4.90;;
8279;SDS011;8335;42.646;23.380;2023-10-19T13:38:03;7.45;;;4.40;;
8279;SDS011;8335;42.646;23.380;2023-10-19T13:40:31;8.40;;;5.18;;
8279;SDS011;8335;42.646;23.380;2023-10-19T13:42:58;7.45;;;5.07;;
8279;SDS011;8335;42.646;23.380;2023-10-19T13:45:25;6.97;;;5.28;;
8279;SDS011;8335;42.646;23.380;2023-10-19T13:47:52;7.75;;;5.53;;
8279;SDS011;8335;42.646;23.380;2023-10-19T13:50:24;6.72;;;5.30;;
8279;SDS011;8335;42.646;23.380;2023-10-19T13:52:53;8.93;;;4.75;;
8279;SDS011;8335;42.646;23.380;2023-10-19T13:55:21;5.63;;;4.85;;
8279;SDS011;8335;42.646;23.380;2023-10-19T13:57:49;10.57;;;5.28;;
8279;SDS011;8335;42.646;23.380;2023-10-19T14:00:17;14.10;;;5.30;;
8279;SDS011;8335;42.646;23.380;2023-10-19T14:02:50;6.30;;;5.00;;
8279;SDS011;8335;42.646;23.380;2023-10-19T14:05:17;7.10;;;5.25;;
8279;SDS011;8335;42.646;23.380;2023-10-19T14:07:46;8.18;;;5.30;;
8279;SDS011;8335;42.646;23.380;2023-10-19T14:10:13;5.40;;;4.90;;
8279;SDS011;8335;42.646;23.380;2023-10-19T14:12:41;11.45;;;4.95;;
8279;SDS011;8335;42.646;23.380;2023-10-19T14:15:12;6.63;;;4.60;;
8279;SDS011;8335;42.646;23.380;2023-10-19T14:17:41;7.65;;;5.22;;
8279;SDS011;8335;42.646;23.380;2023-10-19T14:20:08;7.70;;;4.78;;
8279;SDS011;8335;42.646;23.380;2023-10-19T14:22:39;8.63;;;5.15;;
8279;SDS011;8335;42.646;23.380;2023-10-19T14:25:08;9.13;;;4.63;;
8279;SDS011;8335;42.646;23.380;2023-10-19T14:27:41;10.27;;;4.85;;
8279;SDS011;8335;42.646;23.380;2023-10-19T14:30:10;5.25;;;4.63;;
8279;SDS011;8335;42.646;23.380;2023-10-19T14:32:39;6.97;;;4.50;;
8279;SDS011;8335;42.646;23.380;2023-10-19T14:35:07;5.68;;;4.80;;
8279;SDS011;8335;42.646;23.380;2023-10-19T14:37:36;7.82;;;4.70;;
8279;SDS011;8335;42.646;23.380;2023-10-19T14:40:05;7.50;;;4.70;;
8279;SDS011;8335;42.646;23.380;2023-10-19T14:42:36;5.95;;;4.63;;
8279;SDS011;8335;42.646;23.380;2023-10-19T14:45:05;7.10;;;4.43;;
8279;SDS011;8335;42.646;23.380;2023-10-19T14:47:35;8.32;;;5.05;;
8279;SDS011;8335;42.646;23.380;2023-10-19T14:50:03;6.82;;;4.45;;
8279;SDS011;8335;42.646;23.380;2023-10-19T14:52:31;9.45;;;4.70;;
8279;SDS011;8335;42.646;23.380;2023-10-19T14:54:57;8.63;;;4.93;;
8279;SDS011;8335;42.646;23.380;2023-10-19T14:57:26;7.00;;;4.07;;
8279;SDS011;8335;42.646;23.380;2023-10-19T14:59:53;5.80;;;3.80;;
8279;SDS011;8335;42.646;23.380;2023-10-19T15:02:20;5.90;;;4.65;;
8279;SDS011;8335;42.646;23.380;2023-10-19T15:04:48;7.05;;;4.57;;
8279;SDS011;8335;42.646;23.380;2023-10-19T15:07:15;7.25;;;4.38;;